Decoded Metar for LFBO (TOULOUSE BLAGNAC in FRANCE) (IATA:TLS) | Meteo·Mobile Aviation Weather
aviador You're here:

LFBO Decoded Metar

TOULOUSE BLAGNAC in FRANCE
Report Time2020-02-25 21:30:00
UTC Time2020-02-25 21:40:04
Flight Rules vfr VFR
Wind280° at 15 kt
W.Decomp.*RWY 32: 11.5 kt HW 9.6 kt LCW
Visibility9999 m
Phenomena:Shower Rain
Clouds:Scattered TCU 018 Hf
Few 023 Hf
Expected CloudBase > 1,200 ft AGL from Temp-Dew spread
Ceiling3,500 ft
Temp09°C (ISA -5)
Dew Point06°C (82% RH)
AAT2.7°C
QNH1017 hPa
Density Alt-105 ft
Elevation502 ft
Report Wrong Elevation
Raw Report
METAR LFBO 252130Z AUTO 28015KT 9999 FEW023 09/06 Q1017 TEMPO
30020G33KT 4000 SHRA SCT018TCU BKN035=

Extra information for LFBO:More info

Metar Taf Metar & Taf Last 4 Metars F.Rules Stats Wind Profile Meteogram Temp Stats Airport Information Weather charts Add Link Nearby VenuesMetar ALERT Operation Metar Decoded Social comments